sensor_id;sensor_type;location;lat;lon;timestamp;pressure;altitude;pressure_sealevel;temperature;humidity
61119;BME280;51448;51.660;5.824;2023-04-06T00:01:57;101739.47;;;2.82;67.93
61119;BME280;51448;51.660;5.824;2023-04-06T00:04:25;101738.59;;;2.80;68.37
61119;BME280;51448;51.660;5.824;2023-04-06T00:06:52;101730.75;;;2.77;68.28
61119;BME280;51448;51.660;5.824;2023-04-06T00:09:20;101733.28;;;2.74;68.42
61119;BME280;51448;51.660;5.824;2023-04-06T00:11:48;101723.75;;;2.73;68.30
61119;BME280;51448;51.660;5.824;2023-04-06T00:14:18;101731.47;;;2.70;68.54
61119;BME280;51448;51.660;5.824;2023-04-06T00:16:45;101727.97;;;2.67;68.47
61119;BME280;51448;51.660;5.824;2023-04-06T00:19:13;101728.75;;;2.63;68.91
61119;BME280;51448;51.660;5.824;2023-04-06T00:21:41;101727.84;;;2.60;69.16
61119;BME280;51448;51.660;5.824;2023-04-06T00:24:09;101726.03;;;2.58;69.50
61119;BME280;51448;51.660;5.824;2023-04-06T00:26:36;101719.09;;;2.57;69.26
61119;BME280;51448;51.660;5.824;2023-04-06T00:29:04;101722.53;;;2.56;69.59
61119;BME280;51448;51.660;5.824;2023-04-06T00:31:32;101716.44;;;2.52;69.42
61119;BME280;51448;51.660;5.824;2023-04-06T00:34:00;101720.69;;;2.49;69.43
61119;BME280;51448;51.660;5.824;2023-04-06T00:36:27;101712.00;;;2.47;69.49
61119;BME280;51448;51.660;5.824;2023-04-06T00:38:55;101708.44;;;2.43;69.56
61119;BME280;51448;51.660;5.824;2023-04-06T00:41:23;101706.69;;;2.40;70.02
61119;BME280;51448;51.660;5.824;2023-04-06T00:43:51;101708.38;;;2.38;70.08
61119;BME280;51448;51.660;5.824;2023-04-06T00:46:19;101708.38;;;2.38;70.46
61119;BME280;51448;51.660;5.824;2023-04-06T00:48:47;101702.28;;;2.36;70.59
61119;BME280;51448;51.660;5.824;2023-04-06T00:51:14;101700.50;;;2.35;70.72
61119;BME280;51448;51.660;5.824;2023-04-06T00:53:42;101694.41;;;2.33;70.85
61119;BME280;51448;51.660;5.824;2023-04-06T00:56:12;101708.25;;;2.32;70.88
61119;BME280;51448;51.660;5.824;2023-04-06T00:58:49;101691.72;;;2.29;71.06
61119;BME280;51448;51.660;5.824;2023-04-06T01:01:17;101694.28;;;2.27;71.31
61119;BME280;51448;51.660;5.824;2023-04-06T01:03:48;101690.78;;;2.25;71.48
61119;BME280;51448;51.660;5.824;2023-04-06T01:06:18;101695.97;;;2.24;71.58
61119;BME280;51448;51.660;5.824;2023-04-06T01:08:54;101689.09;;;2.26;71.64
61119;BME280;51448;51.660;5.824;2023-04-06T01:11:24;101682.13;;;2.25;71.75
61119;BME280;51448;51.660;5.824;2023-04-06T01:13:54;101683.84;;;2.24;71.39
61119;BME280;51448;51.660;5.824;2023-04-06T01:16:28;101682.06;;;2.20;71.67
61119;BME280;51448;51.660;5.824;2023-04-06T01:19:12;101681.09;;;2.16;71.69
61119;BME280;51448;51.660;5.824;2023-04-06T01:21:47;101683.56;;;2.10;71.37
61119;BME280;51448;51.660;5.824;2023-04-06T01:24:30;101677.44;;;2.05;71.38
61119;BME280;51448;51.660;5.824;2023-04-06T01:27:11;101676.47;;;2.01;71.56
61119;BME280;51448;51.660;5.824;2023-04-06T01:30:05;101678.13;;;1.98;71.77
61119;BME280;51448;51.660;5.824;2023-04-06T01:32:50;101669.41;;;1.94;72.00
61119;BME280;51448;51.660;5.824;2023-04-06T01:35:30;101669.34;;;1.91;72.46
61119;BME280;51448;51.660;5.824;2023-04-06T01:38:09;101661.44;;;1.85;72.13
61119;BME280;51448;51.660;5.824;2023-04-06T01:40:38;101661.41;;;1.84;72.67
61119;BME280;51448;51.660;5.824;2023-04-06T01:43:06;101657.94;;;1.83;72.50
61119;BME280;51448;51.660;5.824;2023-04-06T01:45:42;101661.34;;;1.80;72.85
61119;BME280;51448;51.660;5.824;2023-04-06T01:48:18;101654.47;;;1.83;73.17
61119;BME280;51448;51.660;5.824;2023-04-06T01:50:45;101651.00;;;1.82;73.27
61119;BME280;51448;51.660;5.824;2023-04-06T01:53:19;101650.13;;;1.81;73.32
61119;BME280;51448;51.660;5.824;2023-04-06T01:55:47;101646.66;;;1.81;73.53
61119;BME280;51448;51.660;5.824;2023-04-06T01:58:21;101645.78;;;1.80;74.11
61119;BME280;51448;51.660;5.824;2023-04-06T02:00:48;101639.72;;;1.80;73.66
61119;BME280;51448;51.660;5.824;2023-04-06T02:03:17;101638.81;;;1.78;73.91
61119;BME280;51448;51.660;5.824;2023-04-06T02:05:46;101644.84;;;1.77;73.67
61119;BME280;51448;51.660;5.824;2023-04-06T02:08:27;101639.56;;;1.74;73.65
61119;BME280;51448;51.660;5.824;2023-04-06T02:10:55;101630.88;;;1.72;73.91
61119;BME280;51448;51.660;5.824;2023-04-06T02:13:30;101632.56;;;1.70;74.30
61119;BME280;51448;51.660;5.824;2023-04-06T02:15:58;101627.38;;;1.70;74.25
61119;BME280;51448;51.660;5.824;2023-04-06T02:18:30;101626.53;;;1.69;74.67
61119;BME280;51448;51.660;5.824;2023-04-06T02:20:58;101621.34;;;1.69;74.40
61119;BME280;51448;51.660;5.824;2023-04-06T02:23:25;101617.00;;;1.70;74.53
61119;BME280;51448;51.660;5.824;2023-04-06T02:25:53;101618.78;;;1.71;74.66
61119;BME280;51448;51.660;5.824;2023-04-06T02:28:21;101616.19;;;1.71;74.56
61119;BME280;51448;51.660;5.824;2023-04-06T02:30:49;101610.13;;;1.72;74.84
61119;BME280;51448;51.660;5.824;2023-04-06T02:33:18;101611.03;;;1.72;74.95
61119;BME280;51448;51.660;5.824;2023-04-06T02:35:47;101606.69;;;1.71;75.27
61119;BME280;51448;51.660;5.824;2023-04-06T02:38:15;101604.94;;;1.72;75.04
61119;BME280;51448;51.660;5.824;2023-04-06T02:40:42;101598.03;;;1.71;74.84
61119;BME280;51448;51.660;5.824;2023-04-06T02:43:25;101604.94;;;1.72;75.22
61119;BME280;51448;51.660;5.824;2023-04-06T02:46:01;101608.44;;;1.74;75.77
61119;BME280;51448;51.660;5.824;2023-04-06T02:48:32;101604.13;;;1.73;75.45
61119;BME280;51448;51.660;5.824;2023-04-06T02:51:03;101591.19;;;1.74;75.33
61119;BME280;51448;51.660;5.824;2023-04-06T02:53:31;101599.00;;;1.76;75.73
61119;BME280;51448;51.660;5.824;2023-04-06T02:55:59;101593.81;;;1.76;75.32
61119;BME280;51448;51.660;5.824;2023-04-06T02:58:35;101585.19;;;1.77;75.70
61119;BME280;51448;51.660;5.824;2023-04-06T03:01:04;101589.53;;;1.78;75.80
61119;BME280;51448;51.660;5.824;2023-04-06T03:03:32;101581.78;;;1.79;75.93
61119;BME280;51448;51.660;5.824;2023-04-06T03:05:59;101581.81;;;1.81;75.81
61119;BME280;51448;51.660;5.824;2023-04-06T03:08:30;101581.81;;;1.81;75.62
61119;BME280;51448;51.660;5.824;2023-04-06T03:10:58;101581.84;;;1.83;75.86
61119;BME280;51448;51.660;5.824;2023-04-06T03:13:33;101569.75;;;1.83;75.82
61119;BME280;51448;51.660;5.824;2023-04-06T03:16:01;101581.84;;;1.84;75.86
61119;BME280;51448;51.660;5.824;2023-04-06T03:18:29;101577.56;;;1.86;75.91
61119;BME280;51448;51.660;5.824;2023-04-06T03:20:57;101570.69;;;1.88;76.47
61119;BME280;51448;51.660;5.824;2023-04-06T03:23:31;101575.97;;;1.91;76.03
61119;BME280;51448;51.660;5.824;2023-04-06T03:26:01;101569.94;;;1.94;76.52
61119;BME280;51448;51.660;5.824;2023-04-06T03:28:30;101570.88;;;1.97;76.36
61119;BME280;51448;51.660;5.824;2023-04-06T03:31:01;101574.38;;;1.99;76.37
61119;BME280;51448;51.660;5.824;2023-04-06T03:33:44;101574.38;;;1.99;76.37
61119;BME280;51448;51.660;5.824;2023-04-06T03:36:18;101564.88;;;2.00;76.46
61119;BME280;51448;51.660;5.824;2023-04-06T03:38:46;101562.31;;;2.01;76.25
61119;BME280;51448;51.660;5.824;2023-04-06T03:41:14;101571.00;;;2.04;76.39
61119;BME280;51448;51.660;5.824;2023-04-06T03:43:49;101567.53;;;2.05;76.11
61119;BME280;51448;51.660;5.824;2023-04-06T03:46:17;101569.31;;;2.06;75.76
61119;BME280;51448;51.660;5.824;2023-04-06T03:48:48;101563.28;;;2.08;76.08
61119;BME280;51448;51.660;5.824;2023-04-06T03:51:18;101571.13;;;2.10;76.35
61119;BME280;51448;51.660;5.824;2023-04-06T03:53:47;101559.03;;;2.12;75.79
61119;BME280;51448;51.660;5.824;2023-04-06T03:56:15;101556.50;;;2.13;75.94
61119;BME280;51448;51.660;5.824;2023-04-06T03:58:42;101564.28;;;2.15;76.13
61119;BME280;51448;51.660;5.824;2023-04-06T04:01:12;101555.66;;;2.16;76.03
61119;BME280;51448;51.660;5.824;2023-04-06T04:03:40;101556.53;;;2.16;75.63
61119;BME280;51448;51.660;5.824;2023-04-06T04:06:08;101553.09;;;2.17;76.06
61119;BME280;51448;51.660;5.824;2023-04-06T04:08:35;101558.28;;;2.19;76.11
61119;BME280;51448;51.660;5.824;2023-04-06T04:11:03;101559.19;;;2.21;76.29
61119;BME280;51448;51.660;5.824;2023-04-06T04:13:31;101560.09;;;2.23;76.39
61119;BME280;51448;51.660;5.824;2023-04-06T04:15:59;101547.19;;;2.26;76.13
61119;BME280;51448;51.660;5.824;2023-04-06T04:18:27;101555.00;;;2.28;76.56
61119;BME280;51448;51.660;5.824;2023-04-06T04:20:55;101555.03;;;2.31;76.55
61119;BME280;51448;51.660;5.824;2023-04-06T04:23:23;101550.75;;;2.33;76.81
61119;BME280;51448;51.660;5.824;2023-04-06T04:25:51;101557.72;;;2.35;76.55
61119;BME280;51448;51.660;5.824;2023-04-06T04:28:19;101557.78;;;2.38;76.72
61119;BME280;51448;51.660;5.824;2023-04-06T04:30:47;101553.47;;;2.39;76.93
61119;BME280;51448;51.660;5.824;2023-04-06T04:33:15;101563.00;;;2.41;76.63
61119;BME280;51448;51.660;5.824;2023-04-06T04:35:44;101559.56;;;2.41;76.47
61119;BME280;51448;51.660;5.824;2023-04-06T04:38:16;101567.38;;;2.42;76.97
61119;BME280;51448;51.660;5.824;2023-04-06T04:40:50;101559.59;;;2.42;76.87
61119;BME280;51448;51.660;5.824;2023-04-06T04:43:17;101557.03;;;2.44;76.63
61119;BME280;51448;51.660;5.824;2023-04-06T04:45:45;101563.09;;;2.45;76.65
61119;BME280;51448;51.660;5.824;2023-04-06T04:48:35;101563.09;;;2.45;76.36
61119;BME280;51448;51.660;5.824;2023-04-06T04:51:05;101559.63;;;2.46;76.82
61119;BME280;51448;51.660;5.824;2023-04-06T04:53:57;101566.47;;;2.40;75.87
61119;BME280;51448;51.660;5.824;2023-04-06T04:56:29;101559.50;;;2.39;76.03
61119;BME280;51448;51.660;5.824;2023-04-06T04:59:06;101553.53;;;2.44;76.34
61119;BME280;51448;51.660;5.824;2023-04-06T05:01:38;101564.84;;;2.47;76.69
61119;BME280;51448;51.660;5.824;2023-04-06T05:04:22;101561.41;;;2.50;76.48
61119;BME280;51448;51.660;5.824;2023-04-06T05:07:04;101562.34;;;2.53;76.80
61119;BME280;51448;51.660;5.824;2023-04-06T05:09:37;101560.66;;;2.55;76.53
61119;BME280;51448;51.660;5.824;2023-04-06T05:12:06;101563.28;;;2.57;76.31
61119;BME280;51448;51.660;5.824;2023-04-06T05:14:41;101555.53;;;2.58;76.51
61119;BME280;51448;51.660;5.824;2023-04-06T05:17:13;101554.69;;;2.61;76.50
61119;BME280;51448;51.660;5.824;2023-04-06T05:19:41;101555.59;;;2.63;76.45
61119;BME280;51448;51.660;5.824;2023-04-06T05:22:10;101556.53;;;2.67;76.81
61119;BME280;51448;51.660;5.824;2023-04-06T05:24:41;101559.16;;;2.70;76.59
61119;BME280;51448;51.660;5.824;2023-04-06T05:27:10;101557.50;;;2.73;76.49
61119;BME280;51448;51.660;5.824;2023-04-06T05:29:38;101561.03;;;2.77;76.49
61119;BME280;51448;51.660;5.824;2023-04-06T05:32:06;101555.91;;;2.83;76.48
61119;BME280;51448;51.660;5.824;2023-04-06T05:34:35;101559.41;;;2.87;76.59
61119;BME280;51448;51.660;5.824;2023-04-06T05:37:04;101553.44;;;2.92;77.05
61119;BME280;51448;51.660;5.824;2023-04-06T05:39:32;101555.25;;;2.98;76.81
61119;BME280;51448;51.660;5.824;2023-04-06T05:42:03;101548.41;;;3.05;76.92
61119;BME280;51448;51.660;5.824;2023-04-06T05:44:47;101546.75;;;3.08;76.77
61119;BME280;51448;51.660;5.824;2023-04-06T05:47:16;101547.69;;;3.15;76.69
61119;BME280;51448;51.660;5.824;2023-04-06T05:49:48;101548.66;;;3.21;76.80
61119;BME280;51448;51.660;5.824;2023-04-06T05:52:25;101547.91;;;3.29;77.27
61119;BME280;51448;51.660;5.824;2023-04-06T05:54:53;101545.41;;;3.36;76.99
61119;BME280;51448;51.660;5.824;2023-04-06T05:57:21;101546.34;;;3.43;77.08
61119;BME280;51448;51.660;5.824;2023-04-06T05:59:50;101542.13;;;3.51;76.65
61119;BME280;51448;51.660;5.824;2023-04-06T06:02:19;101547.41;;;3.60;76.63
61119;BME280;51448;51.660;5.824;2023-04-06T06:04:50;101539.69;;;3.68;77.21
61119;BME280;51448;51.660;5.824;2023-04-06T06:07:20;101538.94;;;3.77;76.93
61119;BME280;51448;51.660;5.824;2023-04-06T06:09:58;101537.34;;;3.88;76.39
61119;BME280;51448;51.660;5.824;2023-04-06T06:12:31;101536.59;;;4.00;76.25
61119;BME280;51448;51.660;5.824;2023-04-06T06:15:00;101537.59;;;4.13;76.16
61119;BME280;51448;51.660;5.824;2023-04-06T06:17:29;101535.97;;;4.26;76.45
61119;BME280;51448;51.660;5.824;2023-04-06T06:19:57;101529.13;;;4.40;76.14
61119;BME280;51448;51.660;5.824;2023-04-06T06:22:27;101534.44;;;4.51;76.18
61119;BME280;51448;51.660;5.824;2023-04-06T06:24:55;101531.03;;;4.61;76.07
61119;BME280;51448;51.660;5.824;2023-04-06T06:27:23;101529.38;;;4.69;75.61
61119;BME280;51448;51.660;5.824;2023-04-06T06:29:52;101532.06;;;4.78;75.62
61119;BME280;51448;51.660;5.824;2023-04-06T06:32:20;101531.22;;;4.87;74.66
61119;BME280;51448;51.660;5.824;2023-04-06T06:34:50;101535.63;;;4.96;75.22
61119;BME280;51448;51.660;5.824;2023-04-06T06:37:19;101532.22;;;5.04;74.34
61119;BME280;51448;51.660;5.824;2023-04-06T06:39:47;101533.13;;;5.11;74.34
61119;BME280;51448;51.660;5.824;2023-04-06T06:42:15;101534.03;;;5.19;74.60
61119;BME280;51448;51.660;5.824;2023-04-06T06:44:48;101523.63;;;5.24;74.23
61119;BME280;51448;51.660;5.824;2023-04-06T06:47:16;101528.88;;;5.30;73.39
61119;BME280;51448;51.660;5.824;2023-04-06T06:49:44;101528.91;;;5.36;73.52
61119;BME280;51448;51.660;5.824;2023-04-06T06:52:11;101533.28;;;5.42;73.51
61119;BME280;51448;51.660;5.824;2023-04-06T06:54:39;101527.22;;;5.48;73.71
61119;BME280;51448;51.660;5.824;2023-04-06T06:57:06;101528.09;;;5.51;73.13
61119;BME280;51448;51.660;5.824;2023-04-06T06:59:34;101524.66;;;5.58;73.21
61119;BME280;51448;51.660;5.824;2023-04-06T07:02:02;101529.88;;;5.64;72.88
61119;BME280;51448;51.660;5.824;2023-04-06T07:04:30;101531.66;;;5.70;73.12
61119;BME280;51448;51.660;5.824;2023-04-06T07:06:58;101528.16;;;5.76;72.76
61119;BME280;51448;51.660;5.824;2023-04-06T07:09:26;101520.38;;;5.83;72.84
61119;BME280;51448;51.660;5.824;2023-04-06T07:11:57;101529.94;;;5.92;72.58
61119;BME280;51448;51.660;5.824;2023-04-06T07:14:31;101521.31;;;5.99;72.43
61119;BME280;51448;51.660;5.824;2023-04-06T07:16:59;101531.75;;;6.09;72.46
61119;BME280;51448;51.660;5.824;2023-04-06T07:19:27;101530.03;;;6.20;72.00
61119;BME280;51448;51.660;5.824;2023-04-06T07:21:54;101527.44;;;6.29;71.85
61119;BME280;51448;51.660;5.824;2023-04-06T07:24:23;101523.06;;;6.37;72.15
61119;BME280;51448;51.660;5.824;2023-04-06T07:26:51;101525.72;;;6.47;71.71
61119;BME280;51448;51.660;5.824;2023-04-06T07:29:19;101522.22;;;6.57;71.18
61119;BME280;51448;51.660;5.824;2023-04-06T07:31:47;101523.09;;;6.65;70.77
61119;BME280;51448;51.660;5.824;2023-04-06T07:34:16;101524.81;;;6.74;70.34
61119;BME280;51448;51.660;5.824;2023-04-06T07:36:44;101528.28;;;6.80;70.44
61119;BME280;51448;51.660;5.824;2023-04-06T07:39:12;101517.81;;;6.88;70.43
61119;BME280;51448;51.660;5.824;2023-04-06T07:41:41;101519.56;;;6.94;70.06
61119;BME280;51448;51.660;5.824;2023-04-06T07:44:08;101520.41;;;6.99;69.71
61119;BME280;51448;51.660;5.824;2023-04-06T07:46:37;101510.81;;;7.01;69.99
61119;BME280;51448;51.660;5.824;2023-04-06T07:49:05;101505.59;;;7.04;69.78
61119;BME280;51448;51.660;5.824;2023-04-06T07:51:38;101507.31;;;7.08;69.47
61119;BME280;51448;51.660;5.824;2023-04-06T07:54:07;101513.41;;;7.10;69.35
61119;BME280;51448;51.660;5.824;2023-04-06T07:56:35;101508.16;;;7.15;69.04
61119;BME280;51448;51.660;5.824;2023-04-06T07:59:02;101506.41;;;7.17;68.78
61119;BME280;51448;51.660;5.824;2023-04-06T08:01:30;101508.13;;;7.21;68.60
61119;BME280;51448;51.660;5.824;2023-04-06T08:03:58;101510.72;;;7.25;68.81
61119;BME280;51448;51.660;5.824;2023-04-06T08:06:26;101505.47;;;7.32;69.03
61119;BME280;51448;51.660;5.824;2023-04-06T08:08:54;101505.47;;;7.39;68.49
61119;BME280;51448;51.660;5.824;2023-04-06T08:11:21;101502.81;;;7.47;68.52
61119;BME280;51448;51.660;5.824;2023-04-06T08:13:49;101505.38;;;7.56;68.23
61119;BME280;51448;51.660;5.824;2023-04-06T08:16:16;101505.34;;;7.62;67.35
61119;BME280;51448;51.660;5.824;2023-04-06T08:18:44;101508.81;;;7.69;67.24
61119;BME280;51448;51.660;5.824;2023-04-06T08:21:12;101505.28;;;7.79;67.85
61119;BME280;51448;51.660;5.824;2023-04-06T08:23:39;101501.69;;;7.91;67.75
61119;BME280;51448;51.660;5.824;2023-04-06T08:26:07;101510.31;;;8.09;68.61
61119;BME280;51448;51.660;5.824;2023-04-06T08:28:35;101507.56;;;8.24;67.41
61119;BME280;51448;51.660;5.824;2023-04-06T08:31:04;101504.84;;;8.38;68.00
61119;BME280;51448;51.660;5.824;2023-04-06T08:33:33;101512.63;;;8.50;67.90
61119;BME280;51448;51.660;5.824;2023-04-06T08:36:10;101505.56;;;8.61;67.07
61119;BME280;51448;51.660;5.824;2023-04-06T08:38:40;101515.97;;;8.69;66.77
61119;BME280;51448;51.660;5.824;2023-04-06T08:41:11;101506.25;;;8.77;66.95
61119;BME280;51448;51.660;5.824;2023-04-06T08:43:47;101502.72;;;8.84;65.87
61119;BME280;51448;51.660;5.824;2023-04-06T08:46:16;101508.75;;;8.90;66.24
61119;BME280;51448;51.660;5.824;2023-04-06T08:48:45;101499.97;;;8.95;66.32
61119;BME280;51448;51.660;5.824;2023-04-06T08:51:13;101507.75;;;9.03;66.78
61119;BME280;51448;51.660;5.824;2023-04-06T08:53:42;101503.31;;;9.10;66.64
61119;BME280;51448;51.660;5.824;2023-04-06T08:56:10;101502.31;;;9.18;66.77
61119;BME280;51448;51.660;5.824;2023-04-06T08:58:39;101497.00;;;9.26;65.54
61119;BME280;51448;51.660;5.824;2023-04-06T09:01:20;101508.31;;;9.31;64.92
61119;BME280;51448;51.660;5.824;2023-04-06T09:04:14;101503.84;;;9.38;64.84
61119;BME280;51448;51.660;5.824;2023-04-06T09:06:43;101510.81;;;9.43;65.42
61119;BME280;51448;51.660;5.824;2023-04-06T09:09:11;101503.66;;;9.53;64.88
61119;BME280;51448;51.660;5.824;2023-04-06T09:11:46;101502.63;;;9.65;64.77
61119;BME280;51448;51.660;5.824;2023-04-06T09:14:15;101504.25;;;9.75;65.31
61119;BME280;51448;51.660;5.824;2023-04-06T09:16:45;101508.44;;;9.89;65.17
61119;BME280;51448;51.660;5.824;2023-04-06T09:19:13;101508.31;;;9.96;64.79
61119;BME280;51448;51.660;5.824;2023-04-06T09:21:40;101509.06;;;10.04;64.93
61119;BME280;51448;51.660;5.824;2023-04-06T09:24:08;101501.09;;;10.11;64.24
61119;BME280;51448;51.660;5.824;2023-04-06T09:26:45;101507.13;;;10.17;64.02
61119;BME280;51448;51.660;5.824;2023-04-06T09:29:24;101509.69;;;10.22;64.20
61119;BME280;51448;51.660;5.824;2023-04-06T09:32:07;101513.09;;;10.30;64.28
61119;BME280;51448;51.660;5.824;2023-04-06T09:34:38;101511.25;;;10.35;64.15
61119;BME280;51448;51.660;5.824;2023-04-06T09:37:16;101510.31;;;10.39;62.99
61119;BME280;51448;51.660;5.824;2023-04-06T09:39:46;101503.31;;;10.40;62.17
61119;BME280;51448;51.660;5.824;2023-04-06T09:42:24;101505.94;;;10.38;61.80
61119;BME280;51448;51.660;5.824;2023-04-06T09:44:53;101508.63;;;10.35;62.16
61119;BME280;51448;51.660;5.824;2023-04-06T09:47:20;101504.19;;;10.37;62.62
61119;BME280;51448;51.660;5.824;2023-04-06T09:49:59;101512.06;;;10.40;62.16
61119;BME280;51448;51.660;5.824;2023-04-06T09:52:32;101509.34;;;10.43;62.47
61119;BME280;51448;51.660;5.824;2023-04-06T09:55:05;101511.03;;;10.47;62.25
61119;BME280;51448;51.660;5.824;2023-04-06T09:57:42;101511.78;;;10.56;62.23
61119;BME280;51448;51.660;5.824;2023-04-06T10:00:22;101509.00;;;10.65;62.51
61119;BME280;51448;51.660;5.824;2023-04-06T10:02:58;101508.91;;;10.71;62.32
61119;BME280;51448;51.660;5.824;2023-04-06T10:05:55;101503.53;;;10.76;62.19
61119;BME280;51448;51.660;5.824;2023-04-06T10:08:29;101507.84;;;10.81;62.35
61119;BME280;51448;51.660;5.824;2023-04-06T10:11:00;101498.16;;;10.83;61.69
61119;BME280;51448;51.660;5.824;2023-04-06T10:13:29;101509.50;;;10.87;61.93
61119;BME280;51448;51.660;5.824;2023-04-06T10:15:57;101505.00;;;10.92;61.65
61119;BME280;51448;51.660;5.824;2023-04-06T10:18:28;101503.09;;;10.99;61.90
61119;BME280;51448;51.660;5.824;2023-04-06T10:21:09;101509.97;;;11.07;61.28
61119;BME280;51448;51.660;5.824;2023-04-06T10:23:52;101502.81;;;11.14;61.41
61119;BME280;51448;51.660;5.824;2023-04-06T10:26:23;101506.16;;;11.24;61.53
61119;BME280;51448;51.660;5.824;2023-04-06T10:28:50;101504.25;;;11.31;61.21
61119;BME280;51448;51.660;5.824;2023-04-06T10:31:26;101501.47;;;11.38;61.47
61119;BME280;51448;51.660;5.824;2023-04-06T10:36:34;101509.13;;;11.49;61.60
61119;BME280;51448;51.660;5.824;2023-04-06T10:39:06;101507.34;;;11.51;61.24
61119;BME280;51448;51.660;5.824;2023-04-06T10:41:44;101505.59;;;11.50;61.14
61119;BME280;51448;51.660;5.824;2023-04-06T10:44:24;101508.16;;;11.55;61.77
61119;BME280;51448;51.660;5.824;2023-04-06T10:46:55;101501.03;;;11.58;61.72
61119;BME280;51448;51.660;5.824;2023-04-06T10:49:24;101504.50;;;11.60;61.50
61119;BME280;51448;51.660;5.824;2023-04-06T10:51:54;101501.84;;;11.60;61.67
61119;BME280;51448;51.660;5.824;2023-04-06T10:54:24;101505.41;;;11.59;61.75
61119;BME280;51448;51.660;5.824;2023-04-06T10:56:54;101503.66;;;11.58;62.24
61119;BME280;51448;51.660;5.824;2023-04-06T10:59:23;101504.56;;;11.59;63.18
61119;BME280;51448;51.660;5.824;2023-04-06T11:01:52;101504.50;;;11.60;63.47
61119;BME280;51448;51.660;5.824;2023-04-06T11:04:22;101497.47;;;11.61;64.49
61119;BME280;51448;51.660;5.824;2023-04-06T11:06:51;101501.94;;;11.57;65.02
61119;BME280;51448;51.660;5.824;2023-04-06T11:09:29;101493.97;;;11.60;65.95
61119;BME280;51448;51.660;5.824;2023-04-06T11:11:58;101506.28;;;11.58;66.04
61119;BME280;51448;51.660;5.824;2023-04-06T11:14:26;101503.75;;;11.55;66.21
61119;BME280;51448;51.660;5.824;2023-04-06T11:16:54;101505.59;;;11.50;66.73
61119;BME280;51448;51.660;5.824;2023-04-06T11:19:22;101499.53;;;11.46;67.21
61119;BME280;51448;51.660;5.824;2023-04-06T11:21:50;101504.88;;;11.42;67.96
61119;BME280;51448;51.660;5.824;2023-04-06T11:26:58;101498.00;;;11.36;69.12
61119;BME280;51448;51.660;5.824;2023-04-06T11:29:29;101496.34;;;11.31;68.93
61119;BME280;51448;51.660;5.824;2023-04-06T11:32:05;101511.38;;;11.25;69.49
61119;BME280;51448;51.660;5.824;2023-04-06T11:34:37;101501.84;;;11.20;69.74
61119;BME280;51448;51.660;5.824;2023-04-06T11:37:11;101504.59;;;11.14;70.10
61119;BME280;51448;51.660;5.824;2023-04-06T11:39:46;101497.72;;;11.05;70.73
61119;BME280;51448;51.660;5.824;2023-04-06T11:42:26;101499.63;;;10.97;70.72
61119;BME280;51448;51.660;5.824;2023-04-06T11:44:58;101489.34;;;10.84;71.06
61119;BME280;51448;51.660;5.824;2023-04-06T11:47:31;101491.25;;;10.76;71.64
61119;BME280;51448;51.660;5.824;2023-04-06T11:50:11;101492.28;;;10.69;71.80
61119;BME280;51448;51.660;5.824;2023-04-06T11:52:41;101490.69;;;10.60;71.67
61119;BME280;51448;51.660;5.824;2023-04-06T11:55:11;101488.09;;;10.57;71.99
61119;BME280;51448;51.660;5.824;2023-04-06T11:57:43;101482.91;;;10.53;73.05
61119;BME280;51448;51.660;5.824;2023-04-06T12:00:12;101480.41;;;10.45;73.07
61119;BME280;51448;51.660;5.824;2023-04-06T12:02:45;101493.75;;;10.34;73.19
61119;BME280;51448;51.660;5.824;2023-04-06T12:05:14;101485.94;;;10.26;73.86
61119;BME280;51448;51.660;5.824;2023-04-06T12:07:42;101486.03;;;10.20;74.83
61119;BME280;51448;51.660;5.824;2023-04-06T12:10:10;101492.25;;;10.15;74.94
61119;BME280;51448;51.660;5.824;2023-04-06T12:12:37;101487.09;;;10.08;75.68
61119;BME280;51448;51.660;5.824;2023-04-06T12:15:06;101476.75;;;9.99;76.31
61119;BME280;51448;51.660;5.824;2023-04-06T12:17:34;101486.50;;;9.93;76.69
61119;BME280;51448;51.660;5.824;2023-04-06T12:20:02;101482.22;;;9.84;77.32
61119;BME280;51448;51.660;5.824;2023-04-06T12:22:40;101483.22;;;9.75;78.20
61119;BME280;51448;51.660;5.824;2023-04-06T12:25:07;101472.81;;;9.67;78.17
61119;BME280;51448;51.660;5.824;2023-04-06T12:27:35;101484.31;;;9.62;78.54
61119;BME280;51448;51.660;5.824;2023-04-06T12:30:03;101481.72;;;9.57;79.17
61119;BME280;51448;51.660;5.824;2023-04-06T12:32:31;101476.53;;;9.53;79.86
61119;BME280;51448;51.660;5.824;2023-04-06T12:34:58;101470.50;;;9.46;80.26
61119;BME280;51448;51.660;5.824;2023-04-06T12:37:27;101466.16;;;9.43;80.86
61119;BME280;51448;51.660;5.824;2023-04-06T12:39:54;101474.06;;;9.40;81.90
61119;BME280;51448;51.660;5.824;2023-04-06T12:42:22;101467.97;;;9.38;81.59
61119;BME280;51448;51.660;5.824;2023-04-06T12:44:50;101470.59;;;9.38;81.32
61119;BME280;51448;51.660;5.824;2023-04-06T12:47:17;101469.72;;;9.38;82.08
61119;BME280;51448;51.660;5.824;2023-04-06T12:49:45;101461.84;;;9.38;82.06
61119;BME280;51448;51.660;5.824;2023-04-06T12:52:13;101455.75;;;9.36;82.71
61119;BME280;51448;51.660;5.824;2023-04-06T12:54:41;101458.38;;;9.36;82.85
61119;BME280;51448;51.660;5.824;2023-04-06T12:57:09;101457.53;;;9.34;82.78
61119;BME280;51448;51.660;5.824;2023-04-06T12:59:37;101452.28;;;9.35;83.46
61119;BME280;51448;51.660;5.824;2023-04-06T13:02:04;101460.09;;;9.37;84.15
61119;BME280;51448;51.660;5.824;2023-04-06T13:04:32;101450.44;;;9.39;83.98
61119;BME280;51448;51.660;5.824;2023-04-06T13:07:00;101447.81;;;9.39;84.15
61119;BME280;51448;51.660;5.824;2023-04-06T13:09:28;101448.72;;;9.39;83.93
61119;BME280;51448;51.660;5.824;2023-04-06T13:11:55;101451.38;;;9.35;84.57
61119;BME280;51448;51.660;5.824;2023-04-06T13:14:23;101446.16;;;9.33;84.62
61119;BME280;51448;51.660;5.824;2023-04-06T13:16:51;101441.78;;;9.34;84.32
61119;BME280;51448;51.660;5.824;2023-04-06T13:19:19;101438.31;;;9.32;85.00
61119;BME280;51448;51.660;5.824;2023-04-06T13:21:47;101447.09;;;9.29;84.57